Putbus, Germany

1:39 PM CET on October 30, 2014 (GMT +0100)
Station Teddy01 | Change Station
CLOSE
Current Station
Personal Weather Station
Location: Brandshagen, MECKLENBURG-VORPOMMERN
Elevation: 56 ft
Nearby Weather Stations

Elev 56 ft 54.24 °N, 13.17 °E | Updated 12 seconds ago

Mostly Cloudy
Mostly Cloudy
53.2 °F
Feels Like 53.2 °F
N
0.2
Wind Variable Wind from West
Gusts 2.5 mph

Today
High -- | Low -- °F
--% Chance of Precip.
Yesterday
High -- | Low -- °F
Precip. -- in
7:03 AM 4:35 PM
Waxing Crescent, 43% visible
Pressure 30.24 in
Visibility 6.2 miles
Clouds Mostly Cloudy 2000 ft
Dew Point 41 °F
Humidity 63%
Rainfall 0.00 in
Snow Depth Not available.
UV 1.0 out of 12
Pollen Not available.
Air Quality Not available.
Flu Activity Not available.
METAR EDAH 301220Z VRB03KT 9999 BKN020 12/06 Q1024

More Conditions Fewer Conditions

Pressure 30.24 in
Visibility 6.2 miles
Clouds Mostly Cloudy 2000 ft
Dew Point 41 °F
Humidity 63%
Rainfall 0.00 in
Snow Depth Not available.
UV 1.0 out of 12
Pollen Not available.
Air Quality Not available.
Flu Activity Not available.
METAR EDAH 301220Z VRB03KT 9999 BKN020 12/06 Q1024

More Conditions Fewer Conditions

10-Day Weather Forecast

Almanac

Astronomy

Oct. 30, 2014 Rise Set
Actual Time
Civil Twilight
Nautical Twilight
Astronomical Twilight
Moon
Length of Visible Light
Length of Day
Tomorrow will be .
, % of the Moon is Illuminated

Today's Extremes

Country Highs Country Lows

Community

WunderPhotos

Upload Photos

1,766,351 photos uploaded!

WunderBlogs® & News

Nearby

Air Quality

  Air Quality AQ Index Pollutant
Not available.

Snow Depth

Station Depth Elevation

Earthquake Activity

City Distance Mag. Time & Date
Minimum magnitude displayed is 2.5.

Coastal Water Temperatures

Place Temperature

Nearby Weather Stations